Time;durP1;ratioP1;P1;durP2;ratioP2;P2;SDS_P1;SDS_P2;PMS_P1;PMS_P2;Temp;Humidity;BMP_temperature;BMP_pressure;BME280_temperature;BME280_humidity;BME280_pressure;Samples;Min_cycle;Max_cycle;Signal;HPM_P1;HPM_P2
2021/12/21 00:01:11;;;;;;;6.90;4.10;;;;;;;;;;5055162;28;20204;-70
2021/12/21 00:03:38;;;;;;;6.37;3.40;;;;;;;;;;5055124;28;20577;-71
2021/12/21 00:06:06;;;;;;;5.63;3.10;;;;;;;;;;5054748;28;20659;-70
2021/12/21 00:08:33;;;;;;;8.80;4.60;;;;;;;;;;5054993;28;20210;-70
2021/12/21 00:11:16;;;;;;;10.43;4.40;;;;;;;;;;5055145;28;20639;-70
2021/12/21 00:16:43;;;;;;;9.73;4.13;;;;;;;;;;5054929;28;20203;-69
2021/12/21 00:19:24;;;;;;;10.30;4.47;;;;;;;;;;5054488;28;20203;-71
2021/12/21 00:22:02;;;;;;;5.23;3.23;;;;;;;;;;5054802;28;20314;-70
2021/12/21 00:24:34;;;;;;;7.87;3.17;;;;;;;;;;5054573;28;20188;-69
2021/12/21 00:27:08;;;;;;;5.83;2.97;;;;;;;;;;5054517;28;20177;-71
2021/12/21 00:29:35;;;;;;;8.50;4.40;;;;;;;;;;5054730;28;20234;-70
2021/12/21 00:32:02;;;;;;;7.67;4.23;;;;;;;;;;5054713;28;20223;-70
2021/12/21 00:34:31;;;;;;;9.57;3.47;;;;;;;;;;5054203;28;20228;-70
2021/12/21 00:36:58;;;;;;;7.73;4.23;;;;;;;;;;5054298;28;20207;-70
2021/12/21 00:39:26;;;;;;;7.50;4.20;;;;;;;;;;5054520;28;20196;-70
2021/12/21 00:41:53;;;;;;;5.97;4.00;;;;;;;;;;5054139;28;20220;-70
2021/12/21 00:44:20;;;;;;;6.10;2.73;;;;;;;;;;5053849;28;20783;-70
2021/12/21 00:46:47;;;;;;;9.27;4.43;;;;;;;;;;5054409;28;20211;-70
2021/12/21 00:49:16;;;;;;;7.33;3.33;;;;;;;;;;5054214;28;20672;-70
2021/12/21 00:51:45;;;;;;;9.10;4.63;;;;;;;;;;5054081;28;20196;-70
2021/12/21 00:54:14;;;;;;;7.77;3.80;;;;;;;;;;5053669;28;20204;-70
2021/12/21 00:56:41;;;;;;;5.77;3.80;;;;;;;;;;5054035;28;20210;-71
2021/12/21 00:59:08;;;;;;;7.20;3.80;;;;;;;;;;5053938;28;20203;-70
2021/12/21 01:01:40;;;;;;;7.53;4.30;;;;;;;;;;5053970;28;20223;-70
2021/12/21 01:04:16;;;;;;;8.13;4.63;;;;;;;;;;5053748;28;20554;-70
2021/12/21 01:06:44;;;;;;;9.60;3.87;;;;;;;;;;5052948;28;20195;-70
2021/12/21 01:09:32;;;;;;;11.53;4.77;;;;;;;;;;5053750;28;20279;-70
2021/12/21 01:12:04;;;;;;;6.77;3.47;;;;;;;;;;5054023;28;20203;-69
2021/12/21 01:17:21;;;;;;;9.03;4.30;;;;;;;;;;5053398;28;20699;-70
2021/12/21 01:20:06;;;;;;;6.10;3.10;;;;;;;;;;5052476;28;20184;-70
2021/12/21 01:30:23;;;;;;;7.20;4.60;;;;;;;;;;5053691;28;20208;-70
2021/12/21 01:33:03;;;;;;;6.57;4.27;;;;;;;;;;5053342;28;20557;-70
2021/12/21 01:35:36;;;;;;;6.70;4.10;;;;;;;;;;5053595;28;20203;-70
2021/12/21 01:40:50;;;;;;;8.50;2.73;;;;;;;;;;5053280;28;20196;-70
2021/12/21 01:43:28;;;;;;;5.20;3.40;;;;;;;;;;5053324;28;20212;-69
2021/12/21 01:51:18;;;;;;;9.10;4.13;;;;;;;;;;5052924;28;20231;-70
2021/12/21 01:53:47;;;;;;;7.37;3.60;;;;;;;;;;5053160;28;20192;-70
2021/12/21 01:56:15;;;;;;;6.27;3.33;;;;;;;;;;5052781;28;20203;-70
2021/12/21 01:58:43;;;;;;;5.73;3.60;;;;;;;;;;5053121;28;20230;-70
2021/12/21 02:01:17;;;;;;;4.30;2.83;;;;;;;;;;5051940;28;20211;-70
2021/12/21 02:03:47;;;;;;;2.73;2.30;;;;;;;;;;5053046;28;20278;-70
2021/12/21 02:06:18;;;;;;;4.23;2.47;;;;;;;;;;5051997;28;20544;-69
2021/12/21 02:08:46;;;;;;;11.53;3.47;;;;;;;;;;5052693;28;20638;-69
2021/12/21 02:11:15;;;;;;;3.63;2.00;;;;;;;;;;5052795;28;20200;-70
2021/12/21 02:13:48;;;;;;;5.03;2.20;;;;;;;;;;5052460;28;20651;-70
2021/12/21 02:16:25;;;;;;;2.80;2.20;;;;;;;;;;5053071;28;20636;-70
2021/12/21 02:19:01;;;;;;;4.57;2.23;;;;;;;;;;5051574;28;20643;-69
2021/12/21 02:24:02;;;;;;;4.83;2.93;;;;;;;;;;5051233;28;20223;-70
2021/12/21 02:29:14;;;;;;;5.33;2.97;;;;;;;;;;5052780;28;20188;-70
2021/12/21 02:31:50;;;;;;;4.27;2.90;;;;;;;;;;5052746;28;20184;-70
2021/12/21 02:34:18;;;;;;;4.23;2.87;;;;;;;;;;5052216;28;20658;-70
2021/12/21 02:36:48;;;;;;;4.10;2.70;;;;;;;;;;5052731;28;20290;-70
2021/12/21 02:39:15;;;;;;;5.10;3.07;;;;;;;;;;5052327;28;20302;-70
2021/12/21 02:41:44;;;;;;;3.23;2.20;;;;;;;;;;5052088;28;20568;-70
2021/12/21 02:44:12;;;;;;;6.73;3.07;;;;;;;;;;5052498;28;20207;-70
2021/12/21 02:46:41;;;;;;;3.07;1.83;;;;;;;;;;5052344;28;20196;-69
2021/12/21 02:49:12;;;;;;;6.43;2.97;;;;;;;;;;5052248;28;20211;-70
2021/12/21 02:51:41;;;;;;;7.80;3.93;;;;;;;;;;5052464;28;20238;-70
2021/12/21 02:54:09;;;;;;;4.87;3.03;;;;;;;;;;5052354;28;20222;-70
2021/12/21 02:56:37;;;;;;;5.00;3.17;;;;;;;;;;5051918;28;20207;-70
2021/12/21 02:59:05;;;;;;;9.43;3.33;;;;;;;;;;5051297;28;20207;-70
2021/12/21 03:01:34;;;;;;;5.77;3.03;;;;;;;;;;5052016;28;20674;-71
2021/12/21 03:04:01;;;;;;;4.57;2.70;;;;;;;;;;5052197;28;20234;-70
2021/12/21 03:07:35;;;;;;;4.23;2.73;;;;;;;;;;5052258;28;20235;-70
2021/12/21 03:09:39;;;;;;;6.80;3.33;;;;;;;;;;5052007;28;20685;-70
2021/12/21 03:14:47;;;;;;;6.57;3.37;;;;;;;;;;5052053;28;20193;-70
2021/12/21 03:17:15;;;;;;;8.03;2.87;;;;;;;;;;5053145;28;20203;-70
2021/12/21 03:19:42;;;;;;;10.67;2.83;;;;;;;;;;5056154;28;20295;-70
2021/12/21 03:22:11;;;;;;;5.57;3.10;;;;;;;;;;5055617;28;20228;-70
2021/12/21 03:24:39;;;;;;;5.47;3.17;;;;;;;;;;5054512;28;20724;-70
2021/12/21 03:27:06;;;;;;;4.67;2.23;;;;;;;;;;5054503;28;20192;-70
2021/12/21 03:29:33;;;;;;;5.93;3.00;;;;;;;;;;5056055;28;20226;-70
2021/12/21 03:32:01;;;;;;;5.00;2.93;;;;;;;;;;5055591;28;20200;-70
2021/12/21 03:34:29;;;;;;;5.53;3.23;;;;;;;;;;5055715;28;20291;-72
2021/12/21 03:36:57;;;;;;;4.97;3.23;;;;;;;;;;5055604;28;20548;-69
2021/12/21 03:39:24;;;;;;;5.00;3.67;;;;;;;;;;5055689;28;20210;-69
2021/12/21 03:41:56;;;;;;;5.07;2.87;;;;;;;;;;5055675;28;20204;-69
2021/12/21 03:44:24;;;;;;;3.47;2.87;;;;;;;;;;5054316;28;20207;-69
2021/12/21 03:46:54;;;;;;;4.97;2.90;;;;;;;;;;5055733;28;20208;-69
2021/12/21 03:51:55;;;;;;;7.00;3.73;;;;;;;;;;5055387;28;20654;-70
2021/12/21 03:54:23;;;;;;;4.60;2.50;;;;;;;;;;5055329;28;20223;-69
2021/12/21 03:56:51;;;;;;;5.10;3.10;;;;;;;;;;5055205;28;20565;-70
2021/12/21 03:59:20;;;;;;;4.00;2.60;;;;;;;;;;5055574;28;20211;-69
2021/12/21 04:01:49;;;;;;;7.23;3.50;;;;;;;;;;5055532;28;20204;-69
2021/12/21 04:04:20;;;;;;;5.37;3.30;;;;;;;;;;5054045;28;20220;-70
2021/12/21 04:06:48;;;;;;;4.47;1.73;;;;;;;;;;5055196;28;20627;-68
2021/12/21 04:09:15;;;;;;;4.67;2.93;;;;;;;;;;5055442;28;20266;-69
2021/12/21 04:11:43;;;;;;;8.33;2.50;;;;;;;;;;5053877;28;20204;-70
2021/12/21 04:14:10;;;;;;;5.10;2.53;;;;;;;;;;5053542;28;20678;-70
2021/12/21 04:16:38;;;;;;;1.63;1.53;;;;;;;;;;5054987;28;20227;-69
2021/12/21 04:19:06;;;;;;;6.33;2.90;;;;;;;;;;5055060;28;20204;-69
2021/12/21 04:21:34;;;;;;;4.13;2.97;;;;;;;;;;5055133;28;20234;-69
2021/12/21 04:24:01;;;;;;;5.10;2.50;;;;;;;;;;5054873;28;20224;-69
2021/12/21 04:26:29;;;;;;;6.10;2.27;;;;;;;;;;5054737;28;20226;-69
2021/12/21 04:28:56;;;;;;;5.57;2.60;;;;;;;;;;5053839;28;20243;-69
2021/12/21 04:31:24;;;;;;;4.10;2.70;;;;;;;;;;5054580;28;20641;-70
2021/12/21 04:33:51;;;;;;;2.50;1.97;;;;;;;;;;5053318;28;20655;-70
2021/12/21 04:36:18;;;;;;;16.27;3.50;;;;;;;;;;5054681;28;20210;-70
2021/12/21 04:38:49;;;;;;;3.77;2.50;;;;;;;;;;5054719;28;20208;-70
2021/12/21 04:41:38;;;;;;;5.00;3.30;;;;;;;;;;5054745;28;20195;-72
2021/12/21 04:44:17;;;;;;;3.30;2.17;;;;;;;;;;5054450;28;20292;-70
2021/12/21 04:46:45;;;;;;;6.10;3.07;;;;;;;;;;5053475;28;20215;-70
2021/12/21 04:49:12;;;;;;;3.63;2.53;;;;;;;;;;5054077;28;20258;-70
2021/12/21 04:51:40;;;;;;;7.33;3.20;;;;;;;;;;5054186;28;20643;-70
2021/12/21 04:54:08;;;;;;;4.67;3.27;;;;;;;;;;5054475;28;20203;-70
2021/12/21 04:56:35;;;;;;;6.47;3.57;;;;;;;;;;5054074;28;20357;-70
2021/12/21 04:59:02;;;;;;;5.40;2.20;;;;;;;;;;5045168;28;20572;-70
2021/12/21 05:01:30;;;;;;;9.33;3.50;;;;;;;;;;5047144;28;20220;-69
2021/12/21 05:03:58;;;;;;;8.00;3.80;;;;;;;;;;5051481;28;20228;-73
2021/12/21 05:06:26;;;;;;;4.53;3.00;;;;;;;;;;5018770;28;20231;-73
2021/12/21 05:09:05;;;;;;;8.83;3.37;;;;;;;;;;5036208;28;20241;-73
2021/12/21 05:11:35;;;;;;;5.10;3.10;;;;;;;;;;5052204;28;20302;-75
2021/12/21 05:14:07;;;;;;;7.17;3.07;;;;;;;;;;5017499;28;20226;-75
2021/12/21 05:16:35;;;;;;;5.30;3.07;;;;;;;;;;5013381;28;20235;-74
2021/12/21 05:19:03;;;;;;;5.30;3.37;;;;;;;;;;5005825;28;20304;-75
2021/12/21 05:21:32;;;;;;;3.97;2.30;;;;;;;;;;5000919;28;20680;-74
2021/12/21 05:24:00;;;;;;;10.27;3.33;;;;;;;;;;5018949;28;20228;-74
2021/12/21 05:26:27;;;;;;;3.73;2.93;;;;;;;;;;5034420;28;20624;-72
2021/12/21 05:28:55;;;;;;;4.53;3.00;;;;;;;;;;5035343;28;20224;-73
2021/12/21 05:31:22;;;;;;;7.00;2.90;;;;;;;;;;5022529;28;20241;-73
2021/12/21 05:33:51;;;;;;;6.40;3.17;;;;;;;;;;5015375;28;20674;-73
2021/12/21 05:36:20;;;;;;;6.83;3.13;;;;;;;;;;5014925;28;20235;-72
2021/12/21 05:38:52;;;;;;;4.00;3.23;;;;;;;;;;5015687;28;20220;-75
2021/12/21 05:41:27;;;;;;;4.07;2.53;;;;;;;;;;5015017;28;21014;-75
2021/12/21 05:43:55;;;;;;;3.17;2.27;;;;;;;;;;5030867;28;20228;-68
2021/12/21 05:46:22;;;;;;;6.83;4.47;;;;;;;;;;5031756;28;20221;-70
2021/12/21 05:48:51;;;;;;;3.53;2.63;;;;;;;;;;5032509;28;20224;-70
2021/12/21 05:51:20;;;;;;;4.43;3.40;;;;;;;;;;5031616;28;20355;-70
2021/12/21 05:53:49;;;;;;;2.90;2.57;;;;;;;;;;5032193;28;20268;-69
2021/12/21 05:56:16;;;;;;;5.20;2.50;;;;;;;;;;5042972;28;20220;-71
2021/12/21 05:58:44;;;;;;;3.30;2.37;;;;;;;;;;5038453;28;20259;-69
2021/12/21 06:01:12;;;;;;;3.17;2.40;;;;;;;;;;5044220;28;20240;-67
2021/12/21 06:03:40;;;;;;;3.80;2.80;;;;;;;;;;5046421;28;20231;-70
2021/12/21 06:06:13;;;;;;;6.30;3.77;;;;;;;;;;5048666;28;20215;-70
2021/12/21 06:08:43;;;;;;;4.20;2.13;;;;;;;;;;5048733;28;20262;-70
2021/12/21 06:11:14;;;;;;;4.80;2.73;;;;;;;;;;5047204;28;20255;-72
2021/12/21 06:16:28;;;;;;;2.90;2.10;;;;;;;;;;5031079;28;20228;-73
2021/12/21 06:27:13;;;;;;;4.60;3.47;;;;;;;;;;5031308;28;20247;-69
2021/12/21 06:29:43;;;;;;;5.93;3.40;;;;;;;;;;5045202;28;20246;-69
2021/12/21 06:32:12;;;;;;;3.30;2.67;;;;;;;;;;5050887;28;20224;-69
2021/12/21 06:34:41;;;;;;;3.03;2.27;;;;;;;;;;5051571;28;20308;-68
2021/12/21 06:37:15;;;;;;;2.43;1.93;;;;;;;;;;5034625;28;20310;-69
2021/12/21 06:39:45;;;;;;;6.50;3.30;;;;;;;;;;5052031;28;20314;-67
2021/12/21 06:42:14;;;;;;;2.40;2.10;;;;;;;;;;5051064;28;20258;-66
2021/12/21 06:44:44;;;;;;;7.87;2.30;;;;;;;;;;5048966;28;20227;-68
2021/12/21 06:52:43;;;;;;;4.37;2.80;;;;;;;;;;5035486;28;20224;-69
2021/12/21 06:55:11;;;;;;;3.93;2.70;;;;;;;;;;5042488;28;20234;-69
2021/12/21 06:57:43;;;;;;;2.00;1.83;;;;;;;;;;5034724;28;20691;-69
2021/12/21 07:00:15;;;;;;;6.37;2.57;;;;;;;;;;5051243;28;20246;-70
2021/12/21 07:02:42;;;;;;;5.57;2.97;;;;;;;;;;5052020;28;20644;-68
2021/12/21 07:05:11;;;;;;;5.20;2.73;;;;;;;;;;5052590;28;20298;-68
2021/12/21 07:07:39;;;;;;;1.97;1.73;;;;;;;;;;5051452;28;20561;-69
2021/12/21 07:10:10;;;;;;;4.13;2.90;;;;;;;;;;5052337;28;20226;-70
2021/12/21 07:20:16;;;;;;;10.87;4.07;;;;;;;;;;5052460;28;20204;-69
2021/12/21 07:22:46;;;;;;;6.53;3.90;;;;;;;;;;5051260;28;20253;-68
2021/12/21 07:25:14;;;;;;;3.67;2.67;;;;;;;;;;5052315;28;20255;-68
2021/12/21 07:27:43;;;;;;;5.77;3.30;;;;;;;;;;5052125;28;20204;-68
2021/12/21 07:30:13;;;;;;;5.63;3.83;;;;;;;;;;5052658;28;20203;-69
2021/12/21 07:32:40;;;;;;;6.67;3.90;;;;;;;;;;5050979;28;20204;-68
2021/12/21 07:35:09;;;;;;;6.47;3.70;;;;;;;;;;5052089;28;20303;-68
2021/12/21 07:37:36;;;;;;;9.60;4.87;;;;;;;;;;5052058;28;20637;-68
2021/12/21 07:40:04;;;;;;;6.10;4.37;;;;;;;;;;5052347;28;20295;-68
2021/12/21 07:42:37;;;;;;;10.50;5.77;;;;;;;;;;5051806;28;20202;-68
2021/12/21 07:45:04;;;;;;;10.60;4.67;;;;;;;;;;5051856;28;20220;-67
2021/12/21 07:47:35;;;;;;;7.97;3.43;;;;;;;;;;5046670;28;20204;-67
2021/12/21 07:50:08;;;;;;;4.20;2.63;;;;;;;;;;5059734;28;20224;-68
2021/12/21 07:52:38;;;;;;;3.63;2.13;;;;;;;;;;5063329;28;20216;-67
2021/12/21 07:55:06;;;;;;;6.00;2.83;;;;;;;;;;5060462;28;20280;-67
2021/12/21 07:57:34;;;;;;;8.00;3.33;;;;;;;;;;5058622;28;20641;-67
2021/12/21 08:00:04;;;;;;;7.50;3.43;;;;;;;;;;5056709;28;21490;-69
2021/12/21 08:02:43;;;;;;;4.43;2.97;;;;;;;;;;5050689;28;20228;-66
2021/12/21 08:05:11;;;;;;;3.17;2.43;;;;;;;;;;5065832;28;20377;-70
2021/12/21 08:07:50;;;;;;;8.23;3.67;;;;;;;;;;5054963;28;20298;-68
2021/12/21 08:10:27;;;;;;;4.33;3.17;;;;;;;;;;5054198;28;20632;-69
2021/12/21 08:12:56;;;;;;;7.07;3.63;;;;;;;;;;5054757;28;20231;-69
2021/12/21 08:15:24;;;;;;;6.10;3.63;;;;;;;;;;5053960;28;20256;-67
2021/12/21 08:17:53;;;;;;;2.83;2.50;;;;;;;;;;5053863;28;20647;-69
2021/12/21 08:20:22;;;;;;;6.03;3.57;;;;;;;;;;5054167;28;20252;-69
2021/12/21 08:22:51;;;;;;;4.53;2.57;;;;;;;;;;5054605;28;20224;-68
2021/12/21 08:25:18;;;;;;;7.13;3.93;;;;;;;;;;5054124;28;20794;-69
2021/12/21 08:27:46;;;;;;;3.87;2.43;;;;;;;;;;5053448;28;20228;-68
2021/12/21 08:30:14;;;;;;;6.17;3.57;;;;;;;;;;5054206;28;20251;-68
2021/12/21 08:32:41;;;;;;;4.53;3.27;;;;;;;;;;5053612;28;20246;-68
2021/12/21 08:35:12;;;;;;;7.80;3.53;;;;;;;;;;5053679;28;20246;-68
2021/12/21 08:37:40;;;;;;;7.43;4.07;;;;;;;;;;5054395;28;20224;-68
2021/12/21 08:40:10;;;;;;;4.23;2.90;;;;;;;;;;5053477;28;20619;-69
2021/12/21 08:42:39;;;;;;;12.63;5.80;;;;;;;;;;5054646;28;20666;-68
2021/12/21 08:45:07;;;;;;;6.47;4.83;;;;;;;;;;5054538;28;20219;-68
2021/12/21 08:47:35;;;;;;;6.57;4.00;;;;;;;;;;5054807;28;20258;-68
2021/12/21 08:50:08;;;;;;;7.97;3.50;;;;;;;;;;5054466;28;20323;-68
2021/12/21 08:52:36;;;;;;;7.93;3.73;;;;;;;;;;5053275;28;20599;-68
2021/12/21 08:55:06;;;;;;;9.50;3.80;;;;;;;;;;5054703;28;20200;-68
2021/12/21 08:57:36;;;;;;;10.40;5.03;;;;;;;;;;5054716;28;20275;-68
2021/12/21 09:00:08;;;;;;;9.70;3.60;;;;;;;;;;5053311;28;20188;-68
2021/12/21 09:02:37;;;;;;;7.53;3.30;;;;;;;;;;5054179;28;20717;-68
2021/12/21 09:05:14;;;;;;;7.17;3.90;;;;;;;;;;5054108;28;20319;-68
2021/12/21 09:07:43;;;;;;;11.33;4.47;;;;;;;;;;5054087;28;20551;-68
2021/12/21 09:10:12;;;;;;;6.90;4.00;;;;;;;;;;5054138;28;20215;-69
2021/12/21 09:12:39;;;;;;;8.53;3.43;;;;;;;;;;5052995;28;20199;-67
2021/12/21 09:15:08;;;;;;;4.80;2.67;;;;;;;;;;5052529;28;20220;-68
2021/12/21 09:17:35;;;;;;;11.23;4.23;;;;;;;;;;5054196;28;20230;-67
2021/12/21 09:20:04;;;;;;;7.27;3.33;;;;;;;;;;5053950;28;20203;-67
2021/12/21 09:22:45;;;;;;;8.67;3.93;;;;;;;;;;5054360;28;20192;-68
2021/12/21 09:25:13;;;;;;;12.57;5.10;;;;;;;;;;5054091;28;20235;-66
2021/12/21 09:27:41;;;;;;;10.73;4.30;;;;;;;;;;5054004;28;20262;-67
2021/12/21 09:30:11;;;;;;;10.23;4.20;;;;;;;;;;5054021;28;20204;-67
2021/12/21 09:32:40;;;;;;;8.27;3.03;;;;;;;;;;5053618;28;20205;-66
2021/12/21 09:35:09;;;;;;;3.87;2.87;;;;;;;;;;5053744;28;20196;-67
2021/12/21 09:37:37;;;;;;;7.03;3.40;;;;;;;;;;5053652;28;20270;-67
2021/12/21 09:40:17;;;;;;;5.07;3.10;;;;;;;;;;5054020;28;20246;-67
2021/12/21 09:42:46;;;;;;;7.23;3.33;;;;;;;;;;5052687;28;20215;-68
2021/12/21 09:45:15;;;;;;;4.83;2.73;;;;;;;;;;5052285;28;20266;-67
2021/12/21 09:47:45;;;;;;;2.80;1.97;;;;;;;;;;5052446;28;20196;-67
2021/12/21 09:50:15;;;;;;;3.60;2.57;;;;;;;;;;5053426;28;20228;-67
2021/12/21 09:52:44;;;;;;;7.13;3.43;;;;;;;;;;5053242;28;20181;-67
2021/12/21 09:55:14;;;;;;;8.40;3.70;;;;;;;;;;5052079;28;20199;-66
2021/12/21 09:57:42;;;;;;;6.40;3.40;;;;;;;;;;5035698;28;20721;-67
2021/12/21 10:00:20;;;;;;;9.80;3.60;;;;;;;;;;5053453;28;20212;-66
2021/12/21 10:02:48;;;;;;;4.17;2.63;;;;;;;;;;5053584;28;20196;-66
2021/12/21 10:05:21;;;;;;;6.50;3.20;;;;;;;;;;5053238;28;20222;-66
2021/12/21 10:08:03;;;;;;;8.13;2.87;;;;;;;;;;5053258;28;20602;-66
2021/12/21 10:10:32;;;;;;;7.93;3.17;;;;;;;;;;5052982;28;20194;-65
2021/12/21 10:13:29;;;;;;;4.47;2.80;;;;;;;;;;5053613;28;20200;-65
2021/12/21 10:15:59;;;;;;;9.20;3.57;;;;;;;;;;5051146;28;20208;-66
2021/12/21 10:18:43;;;;;;;4.77;2.63;;;;;;;;;;5052337;28;20770;-66
2021/12/21 10:21:14;;;;;;;5.40;2.50;;;;;;;;;;5033056;28;20189;-67
2021/12/21 10:23:48;;;;;;;2.70;2.17;;;;;;;;;;5051267;28;20211;-68
2021/12/21 10:26:28;;;;;;;3.47;2.20;;;;;;;;;;5052884;28;20184;-68
2021/12/21 10:29:05;;;;;;;4.47;2.17;;;;;;;;;;5052347;28;20643;-68
2021/12/21 10:31:41;;;;;;;6.00;2.60;;;;;;;;;;5051646;28;20216;-69
2021/12/21 10:34:17;;;;;;;4.37;2.87;;;;;;;;;;5052979;28;20192;-68
2021/12/21 10:37:04;;;;;;;11.17;4.20;;;;;;;;;;5052744;28;20204;-68
2021/12/21 10:39:32;;;;;;;8.17;3.33;;;;;;;;;;5052782;28;20203;-68
2021/12/21 10:42:00;;;;;;;3.17;2.10;;;;;;;;;;5052755;28;20559;-69
2021/12/21 10:44:27;;;;;;;6.23;2.10;;;;;;;;;;5051457;28;20223;-66
2021/12/21 10:46:56;;;;;;;15.00;5.37;;;;;;;;;;5052489;28;20227;-68
2021/12/21 10:49:33;;;;;;;3.87;1.90;;;;;;;;;;5052107;28;20293;-69
2021/12/21 10:52:07;;;;;;;3.63;2.50;;;;;;;;;;5052697;28;20211;-68
2021/12/21 10:54:40;;;;;;;8.67;3.70;;;;;;;;;;5052667;28;20703;-67
2021/12/21 10:57:16;;;;;;;8.37;2.63;;;;;;;;;;5052797;28;20203;-68
2021/12/21 10:59:49;;;;;;;9.27;4.70;;;;;;;;;;5052739;28;20191;-67
2021/12/21 11:02:21;;;;;;;13.33;5.20;;;;;;;;;;5052712;28;20219;-67
2021/12/21 11:04:53;;;;;;;10.77;4.87;;;;;;;;;;5052765;28;20223;-66
2021/12/21 11:10:12;;;;;;;8.33;4.33;;;;;;;;;;5041453;28;20196;-68
2021/12/21 11:13:01;;;;;;;7.53;3.37;;;;;;;;;;5052291;28;20610;-68
2021/12/21 11:15:31;;;;;;;9.60;4.10;;;;;;;;;;5052438;28;20307;-67
2021/12/21 11:18:01;;;;;;;33.03;14.07;;;;;;;;;;5052404;28;20192;-65
2021/12/21 11:20:28;;;;;;;15.43;6.30;;;;;;;;;;5052077;28;20238;-67
2021/12/21 11:23:00;;;;;;;27.77;9.40;;;;;;;;;;5051348;28;20192;-69
2021/12/21 11:25:27;;;;;;;21.97;8.67;;;;;;;;;;5050609;28;20243;-69
2021/12/21 11:27:55;;;;;;;23.67;8.67;;;;;;;;;;5034834;28;20291;-66
2021/12/21 11:30:24;;;;;;;24.90;10.10;;;;;;;;;;5051094;28;20200;-67
2021/12/21 11:32:53;;;;;;;16.70;6.67;;;;;;;;;;5052285;28;20292;-69
2021/12/21 11:38:02;;;;;;;8.87;5.10;;;;;;;;;;5052372;28;20192;-68
2021/12/21 11:40:32;;;;;;;13.60;5.20;;;;;;;;;;5056160;28;20206;-67
2021/12/21 11:43:15;;;;;;;12.70;5.57;;;;;;;;;;5056114;28;20211;-69
2021/12/21 11:45:58;;;;;;;8.60;4.60;;;;;;;;;;5054126;28;20262;-68
2021/12/21 11:48:46;;;;;;;7.57;3.60;;;;;;;;;;5054920;28;20574;-68
2021/12/21 11:51:14;;;;;;;19.80;8.43;;;;;;;;;;5051955;28;20238;-68
2021/12/21 11:53:43;;;;;;;11.70;5.63;;;;;;;;;;5055055;28;20200;-68
2021/12/21 11:56:19;;;;;;;19.43;8.03;;;;;;;;;;5055402;28;20196;-68
2021/12/21 11:58:50;;;;;;;8.67;3.47;;;;;;;;;;5055264;28;20631;-68
2021/12/21 12:01:23;;;;;;;17.73;7.00;;;;;;;;;;5055372;28;20184;-68
2021/12/21 12:04:00;;;;;;;8.33;4.23;;;;;;;;;;5053056;28;20231;-68
2021/12/21 12:07:16;;;;;;;18.23;6.83;;;;;;;;;;5052977;28;20681;-68
2021/12/21 12:10:08;;;;;;;28.43;9.83;;;;;;;;;;5011242;28;20621;-68
2021/12/21 12:12:36;;;;;;;19.37;6.83;;;;;;;;;;5009050;28;20625;-68
2021/12/21 12:15:06;;;;;;;12.23;5.70;;;;;;;;;;5009681;28;20726;-69
2021/12/21 12:17:50;;;;;;;9.93;4.97;;;;;;;;;;5010609;28;20208;-67
2021/12/21 12:20:26;;;;;;;13.97;5.57;;;;;;;;;;5011045;28;20190;-67
2021/12/21 12:23:04;;;;;;;16.97;6.60;;;;;;;;;;4994491;28;20190;-67
2021/12/21 12:25:32;;;;;;;14.50;6.10;;;;;;;;;;5012546;28;20790;-67
2021/12/21 12:28:01;;;;;;;14.93;7.60;;;;;;;;;;5012819;28;20208;-69
2021/12/21 12:30:35;;;;;;;22.97;7.30;;;;;;;;;;5012537;28;20205;-67
2021/12/21 12:33:06;;;;;;;20.33;7.30;;;;;;;;;;5012581;28;20197;-67
2021/12/21 12:35:36;;;;;;;10.80;4.53;;;;;;;;;;5012607;28;20189;-67
2021/12/21 12:38:06;;;;;;;13.37;6.70;;;;;;;;;;5012647;28;20233;-67
2021/12/21 12:40:39;;;;;;;13.37;5.43;;;;;;;;;;5014018;28;20800;-67
2021/12/21 12:43:12;;;;;;;11.90;5.80;;;;;;;;;;5054411;28;20188;-68
2021/12/21 12:46:12;;;;;;;8.97;4.50;;;;;;;;;;5051198;28;20764;-67
2021/12/21 12:48:49;;;;;;;8.27;4.57;;;;;;;;;;5048466;28;20192;-68
2021/12/21 12:51:33;;;;;;;8.20;4.23;;;;;;;;;;5050684;28;20227;-68
2021/12/21 12:54:15;;;;;;;8.70;4.47;;;;;;;;;;5052478;28;20246;-67
2021/12/21 12:56:43;;;;;;;20.50;7.50;;;;;;;;;;5052887;28;20180;-67
2021/12/21 12:59:11;;;;;;;11.97;5.03;;;;;;;;;;5052912;28;20196;-67
2021/12/21 13:01:44;;;;;;;26.10;9.67;;;;;;;;;;5053844;28;20555;-67
2021/12/21 13:04:14;;;;;;;19.73;7.20;;;;;;;;;;5054155;28;20188;-68
2021/12/21 13:06:46;;;;;;;14.63;6.00;;;;;;;;;;5053991;28;20184;-68
2021/12/21 13:09:18;;;;;;;23.37;7.00;;;;;;;;;;5053705;28;20692;-67
2021/12/21 13:11:46;;;;;;;13.43;6.17;;;;;;;;;;5053918;28;20648;-68
2021/12/21 13:14:31;;;;;;;8.77;4.93;;;;;;;;;;5052564;28;20230;-67
2021/12/21 13:16:59;;;;;;;7.53;4.57;;;;;;;;;;5051707;28;20195;-67
2021/12/21 13:19:31;;;;;;;21.70;7.93;;;;;;;;;;5053551;28;20662;-68
2021/12/21 13:22:01;;;;;;;19.87;5.93;;;;;;;;;;5053423;28;20192;-68
2021/12/21 13:24:36;;;;;;;11.53;5.30;;;;;;;;;;5053639;28;20192;-67
2021/12/21 13:27:11;;;;;;;12.30;5.60;;;;;;;;;;5052348;28;20196;-67
2021/12/21 13:29:39;;;;;;;11.87;4.60;;;;;;;;;;5051085;28;20191;-67
2021/12/21 13:32:14;;;;;;;13.57;5.60;;;;;;;;;;5053566;28;20199;-68
2021/12/21 13:34:45;;;;;;;41.53;12.83;;;;;;;;;;5051690;28;20221;-66
2021/12/21 13:37:18;;;;;;;15.90;7.00;;;;;;;;;;5052020;28;20184;-67
2021/12/21 13:39:47;;;;;;;23.90;7.43;;;;;;;;;;5052194;28;20188;-68
2021/12/21 13:42:19;;;;;;;37.57;12.10;;;;;;;;;;5050794;28;20188;-65
2021/12/21 13:44:47;;;;;;;12.90;6.37;;;;;;;;;;5053151;28;20208;-67
2021/12/21 13:47:23;;;;;;;12.83;6.10;;;;;;;;;;5050806;28;20192;-65
2021/12/21 13:49:59;;;;;;;15.47;7.40;;;;;;;;;;5052689;28;20251;-64
2021/12/21 13:52:39;;;;;;;24.93;7.27;;;;;;;;;;5053005;28;20188;-70
2021/12/21 13:55:32;;;;;;;20.30;8.43;;;;;;;;;;5050785;28;20575;-69
2021/12/21 13:58:22;;;;;;;17.03;7.57;;;;;;;;;;5049781;28;20187;-66
2021/12/21 14:00:51;;;;;;;20.97;8.20;;;;;;;;;;5047201;28;20679;-64
2021/12/21 14:06:08;;;;;;;14.53;6.33;;;;;;;;;;5063369;28;20223;-66
2021/12/21 14:08:36;;;;;;;14.90;5.80;;;;;;;;;;5036631;28;20230;-66
2021/12/21 14:11:06;;;;;;;17.57;7.60;;;;;;;;;;5052734;28;20258;-66
2021/12/21 14:13:40;;;;;;;18.27;6.10;;;;;;;;;;5034203;28;20322;-69
2021/12/21 14:16:13;;;;;;;11.73;6.87;;;;;;;;;;5052487;28;20243;-69
2021/12/21 14:18:42;;;;;;;12.47;5.90;;;;;;;;;;5034153;28;20273;-65
2021/12/21 14:21:13;;;;;;;17.13;6.53;;;;;;;;;;5034034;28;20726;-69
2021/12/21 14:23:43;;;;;;;9.97;5.43;;;;;;;;;;5051631;28;20246;-67
2021/12/21 14:26:20;;;;;;;11.63;5.60;;;;;;;;;;5051980;28;20274;-67
2021/12/21 14:28:58;;;;;;;11.63;4.57;;;;;;;;;;5052327;28;20223;-69
2021/12/21 14:31:30;;;;;;;12.20;5.23;;;;;;;;;;5051335;28;20268;-67
2021/12/21 14:34:00;;;;;;;10.37;4.90;;;;;;;;;;5052354;28;20219;-65
2021/12/21 14:36:33;;;;;;;21.20;8.20;;;;;;;;;;5051732;28;20242;-67
2021/12/21 14:39:12;;;;;;;36.67;10.80;;;;;;;;;;5048373;28;20212;-65
2021/12/21 14:42:04;;;;;;;15.73;5.90;;;;;;;;;;5047863;28;20211;-66
2021/12/21 14:44:45;;;;;;;12.67;5.70;;;;;;;;;;5072494;28;20221;-67
2021/12/21 14:47:22;;;;;;;14.93;7.17;;;;;;;;;;5046336;28;20231;-66
2021/12/21 14:49:56;;;;;;;18.00;6.40;;;;;;;;;;5018208;28;20252;-69
2021/12/21 14:52:51;;;;;;;12.00;5.47;;;;;;;;;;5049750;28;20293;-69
2021/12/21 14:55:25;;;;;;;8.93;3.67;;;;;;;;;;5050751;28;20223;-65
2021/12/21 14:57:59;;;;;;;11.17;4.63;;;;;;;;;;5048964;28;20223;-67
2021/12/21 15:00:29;;;;;;;11.83;5.73;;;;;;;;;;5049338;28;20227;-67
2021/12/21 15:02:59;;;;;;;25.47;7.50;;;;;;;;;;5051082;28;20215;-67
2021/12/21 15:05:33;;;;;;;21.70;9.33;;;;;;;;;;5050992;28;20251;-67
2021/12/21 15:08:05;;;;;;;19.47;7.03;;;;;;;;;;5050730;28;20219;-70
2021/12/21 15:10:36;;;;;;;13.00;5.37;;;;;;;;;;5015684;28;20274;-69
2021/12/21 15:13:04;;;;;;;21.30;8.17;;;;;;;;;;5051392;28;20216;-69
2021/12/21 15:15:32;;;;;;;17.00;6.57;;;;;;;;;;5052252;28;20277;-66
2021/12/21 15:17:59;;;;;;;12.40;5.43;;;;;;;;;;5056305;28;20236;-71
2021/12/21 15:20:28;;;;;;;11.77;7.00;;;;;;;;;;5037597;28;20646;-72
2021/12/21 15:22:56;;;;;;;13.07;5.27;;;;;;;;;;5053638;28;20228;-69
2021/12/21 15:25:26;;;;;;;11.47;5.10;;;;;;;;;;5054766;28;20224;-74
2021/12/21 15:27:54;;;;;;;9.50;4.93;;;;;;;;;;5054738;28;20236;-73
2021/12/21 15:30:26;;;;;;;9.87;5.50;;;;;;;;;;5054413;28;20224;-73
2021/12/21 15:32:53;;;;;;;12.00;5.43;;;;;;;;;;5052615;28;20220;-74
2021/12/21 15:35:22;;;;;;;9.63;5.27;;;;;;;;;;5053744;28;20224;-74
2021/12/21 15:37:50;;;;;;;12.17;5.13;;;;;;;;;;5055058;28;20262;-74
2021/12/21 15:40:19;;;;;;;13.90;6.37;;;;;;;;;;5053824;28;20299;-73
2021/12/21 15:42:48;;;;;;;28.87;10.17;;;;;;;;;;5054832;28;20223;-74
2021/12/21 15:45:16;;;;;;;11.83;6.57;;;;;;;;;;5053914;28;20254;-75
2021/12/21 15:47:44;;;;;;;28.83;11.80;;;;;;;;;;5055062;28;20223;-76
2021/12/21 15:50:13;;;;;;;16.43;7.37;;;;;;;;;;5051729;28;20246;-76
2021/12/21 15:52:41;;;;;;;18.97;7.77;;;;;;;;;;5054492;28;20231;-76
2021/12/21 15:55:11;;;;;;;18.23;6.97;;;;;;;;;;5054164;28;20733;-75
2021/12/21 15:57:39;;;;;;;19.90;7.20;;;;;;;;;;5054809;28;20227;-76
2021/12/21 16:00:09;;;;;;;19.90;7.97;;;;;;;;;;5053784;28;20290;-77
2021/12/21 16:02:36;;;;;;;17.07;7.17;;;;;;;;;;5054732;28;20219;-73
2021/12/21 16:05:14;;;;;;;14.47;7.10;;;;;;;;;;5052977;28;20240;-73
2021/12/21 16:07:41;;;;;;;22.20;10.27;;;;;;;;;;5055079;28;20224;-72